Hlavní strana
METAR-TAF:

METAR-TAF

Letiště :

Sfax, Tunisko

zeměpisná šířka: 34-43N, zeměpisná délka: 010-41E, výška: 21 m

Aktuální stav počasí

Zpráva byla vytvořena před 23 minutami, v 21:00 UTC
Východní vítr 4 kt
Teplota 14°C
Vlhkost vzduchu 67%
Tlak 1025 hPa
Viditelnost 10 km a více
Polojasno ve výšce 3300 ft

METAR: DTTX 282100Z 10004KT 9999 SCT033 14/08 Q1025

Čas: 22:23 (21:23 UTC)

Předpověď počasí

Zpráva byla vytvořena před 4 hodinami a 23 minutami, v 17:00 UTC
Předpověď platná od 28 v 18 UTC do 01 v 18 UTC
Východní vítr 10 kt
Viditelnost 10 km a více
Skoro jasno ve výšce 3000 ft
Změna
od 01 v 00 UTC do 01 v 02 UTC
vítr z různých směrů 2 kt
Změna
od 01 v 10 UTC do 01 v 12 UTC
Východojihovýchodní vítr 10 kt

TAF: DTTX 281700Z 2818/0118 10010KT 9999 FEW030 BECMG 0100/0102 VRB02KT BECMG 0110/0112 11010KT

Stav a předpovědi počasí z více než 4 000 letišť (zprávy METAR a TAF).

Červené a žluté tečky na mapě představují dostupné meteorologické stanice.

Když kurzor umístíte na tečku, zobrazí se název stanice.

Pak kliknutím zobrazíte stav a předpověď počasí.

Chcete-li změnit mapu, kliknutím na zelené tlačítko se znaménkem +mapu přiblížíte, kliknutím na zelené tlačítko se znaménkem – mapu oddálíte a kliknutím na zelené šipky přejdete na sousední mapy.


METAR-TAF: